createdAt,value
2023-04-13T00:07:02.791Z,31.70
2023-04-13T00:22:09.676Z,27.62
2023-04-13T00:37:14.870Z,26.40
2023-04-13T00:52:21.350Z,29.72
2023-04-13T01:07:47.551Z,30.48
2023-04-13T01:23:00.563Z,26.20
2023-04-13T01:38:06.950Z,38.63
2023-04-13T01:53:17.949Z,36.75
2023-04-13T02:08:23.119Z,33.23
2023-04-13T02:23:28.579Z,30.90
2023-04-13T02:38:34.379Z,40.12
2023-04-13T02:53:41.185Z,39.78
2023-04-13T03:08:46.498Z,50.12
2023-04-13T03:23:56.365Z,47.83
2023-04-13T03:39:01.990Z,45.12
2023-04-13T03:54:08.670Z,39.13
2023-04-13T04:09:14.301Z,57.20
2023-04-13T04:24:23.926Z,36.20
2023-04-13T04:39:32.292Z,46.97
2023-04-13T04:54:40.006Z,145.92
2023-04-13T05:09:47.022Z,91.55
2023-04-13T05:24:52.238Z,90.22
2023-04-13T05:39:58.449Z,51.85
2023-04-13T05:55:08.223Z,47.90
2023-04-13T06:10:16.593Z,36.53
2023-04-13T06:25:22.457Z,30.10
2023-04-13T06:40:28.290Z,34.00
2023-04-13T06:55:37.953Z,37.63
2023-04-13T07:10:43.902Z,34.23
2023-04-13T07:25:50.738Z,34.60
2023-04-13T07:40:57.399Z,32.60
2023-04-13T07:56:05.573Z,28.85
2023-04-13T08:11:12.583Z,26.05
2023-04-13T08:26:23.321Z,23.45
2023-04-13T08:41:29.040Z,25.20
2023-04-13T08:56:45.303Z,28.75
2023-04-13T09:11:42.094Z,27.95
2023-04-13T09:26:48.970Z,26.48
2023-04-13T09:41:55.138Z,25.05
2023-04-13T09:57:00.224Z,24.27
2023-04-13T10:12:07.849Z,23.77
2023-04-13T10:27:21.594Z,24.90
2023-04-13T10:42:27.987Z,19.92
2023-04-13T10:57:35.183Z,16.17
2023-04-13T11:12:40.215Z,18.45
2023-04-13T11:27:46.840Z,18.75
2023-04-13T11:42:56.720Z,10.78
2023-04-13T11:58:13.496Z,12.68
2023-04-13T12:13:31.092Z,15.72
2023-04-13T12:28:34.182Z,15.05
2023-04-13T12:43:39.085Z,14.15
2023-04-13T12:58:46.950Z,11.08
2023-04-13T13:13:53.118Z,13.62
2023-04-13T13:28:59.467Z,19.92
2023-04-13T13:44:08.556Z,18.45
2023-04-13T13:59:15.265Z,19.80
2023-04-13T14:14:22.542Z,17.70
2023-04-13T14:29:28.105Z,16.70
2023-04-13T14:44:36.575Z,16.60
2023-04-13T14:59:45.530Z,13.55
2023-04-13T15:14:52.872Z,14.03
2023-04-13T15:30:03.297Z,15.13
2023-04-13T15:45:09.559Z,18.50
2023-04-13T16:00:15.207Z,9.93
2023-04-13T16:15:20.336Z,24.60
2023-04-13T16:30:25.867Z,22.10
2023-04-13T16:45:30.926Z,16.65
2023-04-13T17:00:36.061Z,29.57
2023-04-13T17:15:41.541Z,20.68
2023-04-13T17:30:46.568Z,14.07
2023-04-13T17:45:52.260Z,30.10
2023-04-13T18:00:57.370Z,44.53
2023-04-13T18:16:02.635Z,14.10
2023-04-13T18:31:09.210Z,40.88
2023-04-13T18:46:14.514Z,31.85
2023-04-13T19:01:20.350Z,40.63
2023-04-13T19:16:26.164Z,42.58
2023-04-13T19:31:31.648Z,25.45
2023-04-13T19:46:37.193Z,27.62
2023-04-13T20:01:43.907Z,21.05
2023-04-13T20:16:49.496Z,25.43
2023-04-13T20:31:55.359Z,26.60
2023-04-13T20:47:02.073Z,50.23
2023-04-13T21:02:07.546Z,34.43
2023-04-13T21:17:14.058Z,35.63
2023-04-13T21:32:19.125Z,39.10
2023-04-13T21:47:24.553Z,37.35
2023-04-13T22:02:29.662Z,43.40
2023-04-13T22:17:34.788Z,40.52
2023-04-13T22:32:41.433Z,41.83
2023-04-13T22:47:46.507Z,35.25
2023-04-13T23:02:53.392Z,39.00
2023-04-13T23:17:58.556Z,35.08
2023-04-13T23:33:03.580Z,45.23
2023-04-13T23:48:08.628Z,41.95
